Time;durP1;ratioP1;P1;durP2;ratioP2;P2;SDS_P1;SDS_P2;PMS_P1;PMS_P2;Temp;Humidity;BMP_temperature;BMP_pressure;BME280_temperature;BME280_humidity;BME280_pressure;Samples;Min_cycle;Max_cycle;Signal;HPM_P1;HPM_P2
2021/08/24 00:00:18;;;;;;;5.07;1.30;;;;;;;20.72;61.28;101975.38;5131528;27;20035;-59
2021/08/24 00:02:43;;;;;;;6.38;1.80;;;;;;;20.69;61.49;101974.72;5110415;28;20112;-59
2021/08/24 00:05:10;;;;;;;2.13;1.75;;;;;;;20.68;61.24;101978.44;5111627;28;20036;-59
2021/08/24 00:07:36;;;;;;;4.50;2.08;;;;;;;20.69;61.36;101984.63;5111750;28;20401;-61
2021/08/24 00:10:07;;;;;;;2.25;1.48;;;;;;;20.67;61.25;101982.09;5118219;28;20032;-61
2021/08/24 00:12:33;;;;;;;3.78;1.45;;;;;;;20.67;61.15;101983.97;5130964;27;20489;-61
2021/08/24 00:14:58;;;;;;;2.78;1.23;;;;;;;20.66;61.14;101983.13;5117398;27;20065;-61
2021/08/24 00:17:24;;;;;;;1.50;1.30;;;;;;;20.66;61.29;101985.81;5119216;27;20035;-61
2021/08/24 00:19:50;;;;;;;1.85;1.20;;;;;;;20.66;61.33;101979.59;5136437;27;20042;-61
2021/08/24 00:22:16;;;;;;;1.95;1.40;;;;;;;20.66;61.18;101982.28;5136614;27;20042;-61
2021/08/24 00:24:42;;;;;;;2.28;1.40;;;;;;;20.65;61.24;101980.63;5136093;27;20035;-60
2021/08/24 00:27:13;;;;;;;2.53;1.52;;;;;;;20.62;61.49;101979.13;5121973;27;20377;-61
2021/08/24 00:29:39;;;;;;;2.10;1.55;;;;;;;20.61;61.43;101981.97;5115624;28;20294;-60
2021/08/24 00:32:07;;;;;;;3.15;1.60;;;;;;;20.59;61.21;101979.47;5115607;28;20031;-61
2021/08/24 00:34:37;;;;;;;3.90;1.60;;;;;;;20.58;61.09;101981.31;5115436;28;20031;-61
2021/08/24 00:37:04;;;;;;;5.43;1.52;;;;;;;20.59;61.16;101982.16;5115551;28;20046;-61
2021/08/24 00:39:29;;;;;;;1.88;1.40;;;;;;;20.58;61.01;101985.84;5115465;28;20035;-60
2021/08/24 00:41:55;;;;;;;6.72;1.42;;;;;;;20.58;60.85;101984.00;5115804;28;20116;-61
2021/08/24 00:44:21;;;;;;;4.97;1.48;;;;;;;20.56;60.97;101985.19;5130177;27;20035;-60
2021/08/24 00:46:50;;;;;;;1.60;1.50;;;;;;;20.54;60.86;101981.84;5135865;27;20034;-60
2021/08/24 00:49:20;;;;;;;1.58;1.30;;;;;;;20.53;60.68;101985.53;5135624;27;20039;-62
2021/08/24 00:51:49;;;;;;;4.97;1.50;;;;;;;20.54;60.99;101984.50;5135793;27;20035;-61
2021/08/24 00:54:25;;;;;;;2.03;1.50;;;;;;;20.52;60.67;101987.38;5135815;27;20046;-59
2021/08/24 00:56:55;;;;;;;2.50;1.45;;;;;;;20.53;60.61;101986.34;5135587;27;20088;-60
2021/08/24 00:59:21;;;;;;;2.00;1.38;;;;;;;20.50;60.64;101984.00;5135580;27;20031;-61
2021/08/24 01:01:50;;;;;;;2.97;1.92;;;;;;;20.50;60.66;101975.09;5135931;27;20537;-60
2021/08/24 01:04:19;;;;;;;1.55;1.45;;;;;;;20.45;60.50;101989.91;5135451;27;20039;-60
2021/08/24 01:06:53;;;;;;;1.65;1.55;;;;;;;20.47;60.72;101979.00;5135727;27;20427;-60
2021/08/24 01:09:31;;;;;;;4.95;2.30;;;;;;;20.47;60.32;101983.50;5135383;27;20038;-61
2021/08/24 01:12:11;;;;;;;1.73;1.60;;;;;;;20.45;60.49;101981.00;5135371;27;20050;-60
2021/08/24 01:14:51;;;;;;;1.60;1.50;;;;;;;20.47;60.43;101983.50;5135202;27;20039;-60
2021/08/24 01:17:20;;;;;;;3.72;1.60;;;;;;;20.45;60.29;101975.63;5130593;27;20444;-61
2021/08/24 01:20:05;;;;;;;2.25;1.83;;;;;;;20.45;60.26;101976.47;5114603;28;20555;-60
2021/08/24 01:23:05;;;;;;;6.30;1.73;;;;;;;20.44;60.25;101971.28;5114364;28;20028;-61
2021/08/24 01:25:43;;;;;;;1.98;1.75;;;;;;;20.44;60.25;101971.28;5123562;27;20035;-61
2021/08/24 01:28:43;;;;;;;4.53;1.95;;;;;;;20.41;60.11;101980.53;5122869;27;20033;-60
2021/08/24 01:31:54;;;;;;;3.17;2.10;;;;;;;20.38;60.18;101978.19;5134982;27;20046;-60
2021/08/24 01:35:01;;;;;;;2.92;2.10;;;;;;;20.36;60.17;101980.19;5051134;28;20176;-61
2021/08/24 01:37:57;;;;;;;3.17;2.22;;;;;;;20.38;60.24;101982.72;5031305;28;20065;-60
2021/08/24 01:40:34;;;;;;;2.83;2.03;;;;;;;20.36;60.00;101968.63;5114224;28;20585;-61
2021/08/24 01:43:03;;;;;;;3.40;2.08;;;;;;;20.36;60.35;101971.31;5121202;27;20031;-61
2021/08/24 01:45:39;;;;;;;2.92;2.10;;;;;;;20.35;60.05;101978.53;5134627;27;20037;-60
2021/08/24 01:48:13;;;;;;;2.58;1.85;;;;;;;20.35;60.20;101980.38;5134590;27;20031;-60
2021/08/24 01:50:58;;;;;;;2.20;1.70;;;;;;;20.33;60.12;101970.66;5134715;27;20388;-61
2021/08/24 01:53:35;;;;;;;2.35;1.65;;;;;;;20.32;59.92;101977.00;5134749;27;20041;-61
2021/08/24 01:56:23;;;;;;;2.50;1.73;;;;;;;20.31;59.73;101971.81;5134472;27;20473;-60
2021/08/24 01:59:01;;;;;;;3.78;1.83;;;;;;;20.29;59.88;101974.69;5134203;27;20135;-60
2021/08/24 02:01:39;;;;;;;2.78;1.88;;;;;;;20.30;60.15;101973.69;5134343;27;20039;-59
2021/08/24 02:04:12;;;;;;;3.08;1.40;;;;;;;20.28;59.82;101964.09;5134524;27;20031;-61
2021/08/24 02:06:42;;;;;;;2.90;1.60;;;;;;;20.28;59.72;101966.78;5134082;27;20087;-61
2021/08/24 02:09:16;;;;;;;2.00;1.50;;;;;;;20.28;59.83;101980.22;5134188;27;20023;-60
2021/08/24 02:11:43;;;;;;;2.50;1.75;;;;;;;20.27;59.67;101970.50;5123487;27;20558;-60
2021/08/24 02:14:14;;;;;;;2.38;1.70;;;;;;;20.26;59.87;101971.53;5131448;27;20046;-61
2021/08/24 02:16:42;;;;;;;3.13;1.77;;;;;;;20.23;59.87;101967.31;5113516;28;20397;-61
2021/08/24 02:19:12;;;;;;;2.90;1.85;;;;;;;20.24;60.05;101966.31;5120365;27;20019;-61
2021/08/24 02:21:43;;;;;;;1.63;1.30;;;;;;;20.23;60.28;101966.50;5134042;27;20031;-61
2021/08/24 02:24:13;;;;;;;1.50;1.30;;;;;;;20.21;60.04;101969.31;5133824;27;20100;-61
2021/08/24 02:26:40;;;;;;;2.63;1.65;;;;;;;20.22;59.76;101962.13;5133922;27;20031;-61
2021/08/24 02:29:07;;;;;;;2.83;1.25;;;;;;;20.18;59.61;101970.50;5114219;27;20051;-62
2021/08/24 02:31:44;;;;;;;3.58;1.05;;;;;;;20.19;59.44;101969.50;5113433;28;20385;-61
2021/08/24 02:34:21;;;;;;;1.83;1.10;;;;;;;20.18;59.58;101964.28;5124718;27;20050;-61
2021/08/24 02:37:21;;;;;;;1.77;1.40;;;;;;;20.19;59.80;101958.75;5133772;27;20446;-61
2021/08/24 02:40:03;;;;;;;2.72;1.20;;;;;;;20.16;59.24;101963.66;5133695;27;20038;-61
2021/08/24 02:42:49;;;;;;;1.40;1.20;;;;;;;20.14;59.48;101960.28;5134005;27;20019;-61
2021/08/24 02:45:32;;;;;;;1.65;0.95;;;;;;;20.14;59.08;101962.97;5133498;27;20042;-61
2021/08/24 02:48:01;;;;;;;1.67;1.13;;;;;;;20.14;59.06;101968.34;5133708;27;20388;-60
2021/08/24 02:50:27;;;;;;;1.45;0.73;;;;;;;20.12;59.04;101956.94;5133426;27;20034;-61
2021/08/24 02:52:54;;;;;;;2.13;1.05;;;;;;;20.12;59.08;101959.59;5133625;27;20405;-60
2021/08/24 02:55:21;;;;;;;1.75;0.77;;;;;;;20.10;59.01;101961.66;5133257;27;20031;-61
2021/08/24 02:57:47;;;;;;;1.30;0.90;;;;;;;20.05;59.17;101968.34;5133433;27;20469;-61
2021/08/24 03:00:13;;;;;;;2.72;1.02;;;;;;;20.03;58.92;101964.16;5133232;27;20114;-60
2021/08/24 03:02:39;;;;;;;3.63;1.20;;;;;;;19.98;59.17;101963.81;5133246;27;20519;-61
2021/08/24 03:05:05;;;;;;;1.30;1.10;;;;;;;19.99;58.96;101960.13;5133276;27;20035;-61
2021/08/24 03:07:33;;;;;;;2.30;1.10;;;;;;;19.99;59.31;101958.25;5133211;27;20023;-61
2021/08/24 03:10:03;;;;;;;1.05;0.75;;;;;;;20.02;58.76;101965.16;5133293;27;20080;-61
2021/08/24 03:12:34;;;;;;;2.40;1.27;;;;;;;20.00;58.76;101959.97;5132943;27;20485;-60
2021/08/24 03:15:18;;;;;;;1.30;1.02;;;;;;;20.02;58.72;101965.16;5132964;27;20139;-61
2021/08/24 03:18:06;;;;;;;2.88;1.02;;;;;;;20.01;58.85;101963.47;5133128;27;20039;-61
2021/08/24 03:20:37;;;;;;;4.00;0.88;;;;;;;19.99;58.62;101958.25;5117285;27;20092;-62
2021/08/24 03:23:08;;;;;;;1.13;0.90;;;;;;;19.95;58.54;101956.94;5124293;27;20336;-61
2021/08/24 03:25:34;;;;;;;2.25;0.70;;;;;;;19.95;58.42;101955.09;5127741;27;20461;-61
2021/08/24 03:28:00;;;;;;;3.88;1.13;;;;;;;19.94;58.51;101953.41;5132707;27;20027;-61
2021/08/24 03:30:26;;;;;;;2.30;0.75;;;;;;;19.94;58.49;101949.91;5132967;27;20397;-61
2021/08/24 03:32:52;;;;;;;3.08;0.80;;;;;;;19.90;58.49;101956.59;5132609;27;20038;-61
2021/08/24 03:35:20;;;;;;;1.30;0.80;;;;;;;19.91;58.36;101960.94;5128625;27;20034;-60
2021/08/24 03:37:47;;;;;;;2.58;0.70;;;;;;;19.91;58.46;101960.94;5112285;28;20039;-61
2021/08/24 03:40:15;;;;;;;2.38;1.08;;;;;;;19.91;58.44;101963.63;5112340;28;20386;-61
2021/08/24 03:42:41;;;;;;;0.73;0.63;;;;;;;19.91;58.63;101953.75;5112377;28;20040;-60
2021/08/24 03:45:09;;;;;;;0.77;0.60;;;;;;;19.91;58.12;101958.25;5111897;28;20027;-61
2021/08/24 03:47:34;;;;;;;2.38;0.57;;;;;;;19.89;58.35;101952.25;5111014;28;20031;-61
2021/08/24 03:50:00;;;;;;;1.10;0.50;;;;;;;19.87;58.47;101949.75;5111868;28;20115;-61
2021/08/24 03:52:26;;;;;;;2.35;0.90;;;;;;;19.88;58.46;101950.56;5097879;28;20080;-61
2021/08/24 03:54:51;;;;;;;5.45;1.02;;;;;;;19.86;58.20;101952.59;5132282;27;20035;-61
2021/08/24 03:57:17;;;;;;;2.58;0.88;;;;;;;19.84;57.98;101955.44;5132208;27;20039;-60
2021/08/24 03:59:43;;;;;;;1.58;0.80;;;;;;;19.80;57.85;101954.94;5132600;27;20446;-61
2021/08/24 04:02:08;;;;;;;3.42;1.08;;;;;;;19.79;57.86;101947.06;5132211;27;20031;-61
2021/08/24 04:04:35;;;;;;;2.22;1.10;;;;;;;19.81;58.13;101947.75;5132300;27;20100;-61
2021/08/24 04:07:01;;;;;;;2.08;1.40;;;;;;;19.79;58.54;101949.75;5132281;28;20039;-61
2021/08/24 04:09:27;;;;;;;1.95;1.30;;;;;;;19.77;58.56;101952.59;5132468;28;20039;-61
2021/08/24 04:11:52;;;;;;;4.63;1.40;;;;;;;19.76;58.78;101953.59;5132416;28;20035;-61
2021/08/24 04:14:18;;;;;;;1.42;1.33;;;;;;;19.72;58.80;101949.56;5113587;28;20043;-60
2021/08/24 04:16:43;;;;;;;1.30;1.00;;;;;;;19.71;58.85;101954.13;5132187;28;20110;-61
2021/08/24 04:19:12;;;;;;;1.63;1.20;;;;;;;19.72;58.68;101949.56;5132009;28;20034;-61
2021/08/24 04:21:42;;;;;;;1.30;1.08;;;;;;;19.72;59.56;101960.28;5132145;28;20213;-60
2021/08/24 04:24:09;;;;;;;1.15;0.90;;;;;;;19.71;59.54;101954.13;5132269;28;20042;-61
2021/08/24 04:26:35;;;;;;;1.65;1.17;;;;;;;19.71;59.02;101956.81;5127581;28;20035;-61
2021/08/24 04:29:01;;;;;;;1.73;1.17;;;;;;;19.71;58.54;101950.59;5111449;28;20036;-60
2021/08/24 04:31:30;;;;;;;1.15;1.05;;;;;;;19.68;58.56;101951.78;5111398;28;20356;-60
2021/08/24 04:33:57;;;;;;;1.75;1.10;;;;;;;19.68;58.70;101953.59;5111332;28;20486;-61
2021/08/24 04:36:22;;;;;;;1.20;1.08;;;;;;;19.66;58.63;101961.81;5111383;28;20043;-61
2021/08/24 04:38:48;;;;;;;1.67;0.98;;;;;;;19.67;58.56;101952.75;5111463;28;20397;-61
2021/08/24 04:41:14;;;;;;;1.98;1.15;;;;;;;19.67;58.26;101957.31;5111409;28;20028;-61
2021/08/24 04:43:40;;;;;;;1.35;1.25;;;;;;;19.66;58.32;101950.25;5093578;28;20031;-61
2021/08/24 04:46:06;;;;;;;1.23;1.00;;;;;;;19.65;58.45;101952.06;5111598;28;20046;-61
2021/08/24 04:48:32;;;;;;;2.63;1.42;;;;;;;19.64;58.41;101947.72;5111377;28;20047;-62
2021/08/24 04:50:58;;;;;;;2.30;0.75;;;;;;;19.65;58.58;101943.22;5111226;28;20118;-62
2021/08/24 04:53:25;;;;;;;1.02;0.90;;;;;;;19.63;58.27;101942.53;5111114;28;20126;-62
2021/08/24 04:55:53;;;;;;;2.75;0.95;;;;;;;19.63;58.30;101945.22;5111208;28;20123;-61
2021/08/24 04:58:19;;;;;;;0.90;0.80;;;;;;;19.62;58.42;101951.59;5097442;28;20040;-61
2021/08/24 05:00:45;;;;;;;0.90;0.80;;;;;;;19.61;58.23;101942.72;5094657;28;20028;-61
2021/08/24 05:03:11;;;;;;;0.80;0.77;;;;;;;19.61;58.07;101944.53;5094633;28;20509;-61
2021/08/24 05:05:37;;;;;;;0.82;0.73;;;;;;;19.58;57.82;101943.03;5094600;28;20032;-62
2021/08/24 05:08:03;;;;;;;0.90;0.80;;;;;;;19.56;57.83;101945.03;5094442;28;20032;-62
2021/08/24 05:10:29;;;;;;;1.92;0.82;;;;;;;19.56;57.83;101953.94;5096337;28;20062;-61
2021/08/24 05:12:55;;;;;;;0.75;0.75;;;;;;;19.54;57.89;101947.06;5089822;28;20028;-61
2021/08/24 05:15:21;;;;;;;1.15;0.93;;;;;;;19.52;58.02;101951.75;5106842;28;20040;-61
2021/08/24 05:17:49;;;;;;;0.80;0.80;;;;;;;19.49;58.17;101950.25;5099523;28;20052;-61
2021/08/24 05:20:15;;;;;;;1.00;1.00;;;;;;;19.43;58.23;101946.38;5094147;28;20024;-62
2021/08/24 05:22:42;;;;;;;0.90;0.90;;;;;;;19.44;58.11;101949.91;5094285;28;20044;-62
2021/08/24 05:25:11;;;;;;;0.95;0.90;;;;;;;19.35;58.14;101949.06;5094412;28;20040;-62
2021/08/24 05:27:37;;;;;;;1.17;1.10;;;;;;;19.36;58.20;101950.75;5094057;28;20037;-61
2021/08/24 05:30:06;;;;;;;1.10;1.00;;;;;;;19.40;58.53;101953.94;5104730;28;20493;-61
2021/08/24 05:32:32;;;;;;;0.80;0.80;;;;;;;19.42;58.24;101949.22;5114403;28;20032;-61
2021/08/24 05:34:58;;;;;;;1.80;1.23;;;;;;;19.42;58.13;101950.06;5114226;28;20551;-61
2021/08/24 05:37:24;;;;;;;1.55;1.35;;;;;;;19.41;58.07;101942.19;5114585;28;20031;-61
2021/08/24 05:39:49;;;;;;;1.25;1.15;;;;;;;19.42;58.24;101943.88;5114210;28;20402;-61
2021/08/24 05:42:15;;;;;;;1.20;1.10;;;;;;;19.42;58.37;101944.72;5114747;28;20035;-61
2021/08/24 05:44:41;;;;;;;1.65;1.10;;;;;;;19.42;58.48;101950.06;5114126;28;20116;-61
2021/08/24 05:47:07;;;;;;;1.00;0.90;;;;;;;19.41;58.28;101955.59;5103633;28;20044;-62
2021/08/24 05:49:34;;;;;;;0.82;0.82;;;;;;;19.40;57.88;101952.06;5093722;28;20043;-62
2021/08/24 05:52:00;;;;;;;3.05;0.90;;;;;;;19.39;57.74;101958.47;5075540;28;20036;-61
2021/08/24 05:54:27;;;;;;;2.35;1.00;;;;;;;19.39;58.13;101952.25;5093356;28;20555;-61
2021/08/24 05:56:52;;;;;;;2.03;1.13;;;;;;;19.37;58.42;101960.47;5096789;28;20057;-61
2021/08/24 05:59:18;;;;;;;1.10;1.05;;;;;;;19.38;58.63;101961.31;5113897;28;20126;-61
2021/08/24 06:01:44;;;;;;;1.42;1.02;;;;;;;19.35;58.87;101959.78;5113850;28;20105;-61
2021/08/24 06:04:09;;;;;;;1.13;1.02;;;;;;;19.36;59.53;101955.25;5134261;27;20031;-61
2021/08/24 06:06:38;;;;;;;1.15;1.05;;;;;;;19.34;59.45;101952.75;5134385;27;20042;-61
2021/08/24 06:09:09;;;;;;;1.05;1.02;;;;;;;19.33;59.87;101965.31;5133314;27;20552;-61
2021/08/24 06:11:45;;;;;;;1.95;1.25;;;;;;;19.33;60.01;101961.81;5134222;27;20037;-61
2021/08/24 06:14:11;;;;;;;3.28;1.05;;;;;;;19.32;59.94;101960.94;5134110;27;20035;-61
2021/08/24 06:16:38;;;;;;;2.88;1.85;;;;;;;19.30;59.90;101960.28;5131324;27;20031;-61
2021/08/24 06:19:05;;;;;;;1.60;1.50;;;;;;;19.30;59.85;101960.28;5133947;27;20393;-61
2021/08/24 06:21:30;;;;;;;4.32;1.52;;;;;;;19.30;59.71;101973.69;5131495;27;20028;-61
2021/08/24 06:23:56;;;;;;;1.75;1.65;;;;;;;19.29;59.97;101974.69;5133600;27;20039;-61
2021/08/24 06:26:22;;;;;;;1.88;1.63;;;;;;;19.30;60.07;101972.84;5114996;27;20456;-61
2021/08/24 06:28:48;;;;;;;1.77;1.58;;;;;;;19.29;59.66;101969.31;5133412;27;20122;-61
2021/08/24 06:31:18;;;;;;;3.15;1.90;;;;;;;19.28;59.63;101974.84;5133562;27;20276;-61
2021/08/24 06:33:44;;;;;;;2.28;2.10;;;;;;;19.25;59.79;101981.41;5127720;27;20035;-61
2021/08/24 06:36:12;;;;;;;4.35;2.47;;;;;;;19.28;59.98;101977.53;5133324;27;20035;-60
2021/08/24 06:38:37;;;;;;;4.40;2.53;;;;;;;19.27;60.25;101975.88;5133335;27;20020;-61
2021/08/24 06:41:04;;;;;;;2.55;2.20;;;;;;;19.23;59.64;101978.03;5127790;27;20486;-61
2021/08/24 06:43:31;;;;;;;3.30;2.20;;;;;;;19.23;59.80;101980.72;5115541;27;20023;-61
2021/08/24 06:45:57;;;;;;;3.08;2.00;;;;;;;19.25;60.06;101983.22;5133310;27;20401;-60
2021/08/24 06:48:23;;;;;;;2.97;1.80;;;;;;;19.25;60.06;101983.22;5133000;27;20064;-61
2021/08/24 06:50:49;;;;;;;1.80;1.67;;;;;;;19.26;60.19;101982.22;5132922;27;20091;-60
2021/08/24 06:53:15;;;;;;;3.47;2.08;;;;;;;19.23;60.04;101985.22;5132848;27;20031;-61
2021/08/24 06:55:41;;;;;;;2.45;2.20;;;;;;;19.20;60.20;101989.94;5132401;27;20530;-61
2021/08/24 06:58:13;;;;;;;1.80;1.70;;;;;;;19.22;60.49;101987.09;5133151;27;20039;-61
2021/08/24 07:00:40;;;;;;;2.28;2.00;;;;;;;19.21;60.44;101980.88;5132803;27;20023;-61
2021/08/24 07:03:09;;;;;;;1.63;1.30;;;;;;;19.23;60.97;101982.53;5114587;27;20039;-60
2021/08/24 07:05:40;;;;;;;3.40;1.52;;;;;;;19.24;60.83;101984.25;5132575;27;20063;-61
2021/08/24 07:08:05;;;;;;;2.50;1.60;;;;;;;19.25;61.06;101991.28;5127561;27;20106;-61
2021/08/24 07:10:31;;;;;;;4.50;2.17;;;;;;;19.26;61.31;101990.25;5132627;27;20031;-60
2021/08/24 07:12:56;;;;;;;3.17;1.70;;;;;;;19.27;61.61;101995.44;5132502;27;20031;-60
2021/08/24 07:15:23;;;;;;;2.40;2.20;;;;;;;19.27;61.69;101994.63;5132848;27;20027;-60
2021/08/24 07:17:55;;;;;;;5.28;1.83;;;;;;;19.27;62.46;102000.00;5133027;27;20031;-59
2021/08/24 07:20:22;;;;;;;1.73;1.63;;;;;;;19.27;62.29;101997.31;5129707;27;20522;-60
2021/08/24 07:22:48;;;;;;;2.03;1.83;;;;;;;19.25;62.23;102000.16;5112224;28;20116;-60
2021/08/24 07:25:18;;;;;;;2.10;1.90;;;;;;;19.23;62.15;102002.16;5093943;28;20035;-60
2021/08/24 07:27:44;;;;;;;6.97;2.88;;;;;;;19.24;62.07;102000.31;5112278;28;20047;-60
2021/08/24 07:30:10;;;;;;;4.70;2.90;;;;;;;19.22;62.15;102003.16;5112399;28;20031;-60
2021/08/24 07:32:36;;;;;;;3.58;2.40;;;;;;;19.20;62.23;101999.81;5112203;28;20036;-60
2021/08/24 07:35:03;;;;;;;4.35;2.60;;;;;;;19.21;62.15;102002.31;5111989;28;20080;-60
2021/08/24 07:37:29;;;;;;;3.33;2.28;;;;;;;19.24;62.22;102003.81;5112118;28;20031;-60
2021/08/24 07:39:55;;;;;;;2.83;2.58;;;;;;;19.24;62.41;102001.13;5117891;27;21298;-60
2021/08/24 07:42:21;;;;;;;5.72;2.38;;;;;;;19.24;62.54;102005.69;5126530;27;20023;-60
2021/08/24 07:44:47;;;;;;;3.05;2.28;;;;;;;19.25;62.68;102007.34;5132222;27;20046;-60
2021/08/24 07:47:12;;;;;;;2.13;1.90;;;;;;;19.25;62.69;102004.66;5131902;27;20549;-59
2021/08/24 07:49:39;;;;;;;2.45;2.17;;;;;;;19.23;62.76;102002.16;5113396;27;20037;-60
2021/08/24 07:52:10;;;;;;;2.90;2.00;;;;;;;19.26;62.81;102000.97;5131713;27;20027;-60
2021/08/24 07:54:37;;;;;;;3.00;2.13;;;;;;;19.28;62.87;102015.91;5127132;27;20049;-59
2021/08/24 07:57:03;;;;;;;2.15;1.85;;;;;;;19.29;63.01;102006.84;5130974;27;20066;-58
2021/08/24 07:59:29;;;;;;;1.92;1.73;;;;;;;19.30;63.05;102008.53;5131037;27;20027;-59
2021/08/24 08:01:55;;;;;;;3.63;1.23;;;;;;;19.31;63.12;102004.88;5131416;27;20431;-60
2021/08/24 08:04:22;;;;;;;2.38;1.45;;;;;;;19.32;63.29;102006.53;5131683;27;20088;-60
2021/08/24 08:06:49;;;;;;;2.10;1.90;;;;;;;19.30;63.36;102013.06;5125842;27;20027;-59
2021/08/24 08:09:14;;;;;;;2.72;2.08;;;;;;;19.31;63.48;102010.22;5132004;28;20046;-60
2021/08/24 08:11:41;;;;;;;3.80;1.73;;;;;;;19.30;63.69;102007.72;5132213;28;20102;-59
2021/08/24 08:14:08;;;;;;;7.90;2.53;;;;;;;19.29;64.05;102004.19;5131499;28;20509;-60
2021/08/24 08:16:35;;;;;;;3.80;2.13;;;;;;;19.29;64.16;102001.50;5132191;28;20039;-59
2021/08/24 08:19:02;;;;;;;4.90;2.33;;;;;;;19.31;64.35;102006.69;5131480;28;20038;-59
2021/08/24 08:21:41;;;;;;;2.67;2.20;;;;;;;19.30;64.59;102003.16;5115032;28;20038;-60
2021/08/24 08:24:07;;;;;;;3.67;2.20;;;;;;;19.31;64.50;101998.66;5110884;28;20122;-59
2021/08/24 08:26:34;;;;;;;2.97;2.45;;;;;;;19.31;64.80;102004.88;5111374;28;20067;-60
2021/08/24 08:29:03;;;;;;;2.30;2.10;;;;;;;19.30;64.92;102000.47;5110955;28;20039;-59
2021/08/24 08:31:31;;;;;;;2.50;2.30;;;;;;;19.30;65.11;102008.53;5110692;28;20077;-59
2021/08/24 08:33:57;;;;;;;7.05;2.58;;;;;;;19.32;65.25;102000.31;5113995;28;20402;-58
2021/08/24 08:36:23;;;;;;;10.25;2.50;;;;;;;19.32;65.30;102003.00;5126480;27;20046;-59
2021/08/24 08:38:49;;;;;;;3.00;2.75;;;;;;;19.30;65.46;102005.84;5134959;27;20025;-59
2021/08/24 08:41:34;;;;;;;5.65;2.90;;;;;;;19.30;65.95;102011.19;5135864;27;20099;-59
2021/08/24 08:44:12;;;;;;;5.60;3.17;;;;;;;19.28;66.40;102015.06;5133505;27;20454;-59
2021/08/24 08:47:00;;;;;;;3.28;2.97;;;;;;;19.31;66.43;102009.38;5136189;27;20035;-59
2021/08/24 08:49:34;;;;;;;6.05;2.92;;;;;;;19.28;66.46;101997.16;5132947;27;20035;-59
2021/08/24 08:52:19;;;;;;;5.68;3.35;;;;;;;19.27;66.70;102006.16;5135245;27;20039;-58
2021/08/24 08:55:06;;;;;;;7.38;2.70;;;;;;;19.31;66.58;102006.69;5121015;27;20040;-59
2021/08/24 08:58:01;;;;;;;3.55;2.40;;;;;;;19.31;66.39;102014.72;5104272;28;20465;-59
2021/08/24 09:00:50;;;;;;;3.40;3.05;;;;;;;19.31;67.06;102014.72;5083470;28;20048;-62
2021/08/24 09:03:22;;;;;;;10.73;4.00;;;;;;;19.31;67.37;102017.41;5093897;28;20040;-59
2021/08/24 09:05:48;;;;;;;12.60;4.88;;;;;;;19.32;67.07;102016.41;5093570;28;20031;-57
2021/08/24 09:08:20;;;;;;;18.20;6.85;;;;;;;19.32;67.62;102016.41;5096575;28;20436;-58
2021/08/24 09:10:52;;;;;;;11.70;5.05;;;;;;;19.34;67.28;102011.72;5094324;28;20110;-58
2021/08/24 09:13:26;;;;;;;13.45;4.95;;;;;;;19.33;67.71;102012.75;5102474;28;20039;-59
2021/08/24 09:15:57;;;;;;;13.90;4.63;;;;;;;19.34;67.87;102011.72;5102813;28;20028;-58
2021/08/24 09:18:41;;;;;;;8.82;4.60;;;;;;;19.33;68.17;102013.56;5106425;28;20043;-58
2021/08/24 09:21:11;;;;;;;16.27;4.18;;;;;;;19.34;68.02;102022.44;5112209;28;20036;-59
2021/08/24 09:23:36;;;;;;;8.88;3.47;;;;;;;19.36;68.14;102011.56;5113111;28;20032;-59
2021/08/24 09:26:33;;;;;;;8.02;4.10;;;;;;;19.36;68.00;102003.50;5113958;28;20040;-59
2021/08/24 09:28:58;;;;;;;8.05;4.35;;;;;;;19.37;68.25;102005.19;5114597;28;20042;-58
2021/08/24 09:31:25;;;;;;;7.20;4.43;;;;;;;19.38;67.91;102004.19;5094622;28;20040;-58
2021/08/24 09:33:52;;;;;;;5.15;3.80;;;;;;;19.41;68.01;102003.88;5093940;28;20072;-59
2021/08/24 09:36:18;;;;;;;13.43;4.60;;;;;;;19.40;68.56;102008.38;5093955;28;20032;-59
2021/08/24 09:38:54;;;;;;;6.13;4.45;;;;;;;19.41;68.85;102009.22;5105367;28;20084;-58
2021/08/24 09:41:24;;;;;;;8.85;3.60;;;;;;;19.42;69.09;102002.84;5114589;28;20058;-58
2021/08/24 09:43:56;;;;;;;6.10;4.25;;;;;;;19.41;69.24;102002.03;5113665;28;20066;-58
2021/08/24 09:46:30;;;;;;;9.00;4.97;;;;;;;19.44;68.53;102012.44;5112005;28;20085;-57
2021/08/24 09:49:28;;;;;;;10.18;5.10;;;;;;;19.46;69.27;102014.94;5093775;28;20036;-58
2021/08/24 09:52:00;;;;;;;9.98;5.30;;;;;;;19.48;69.80;102020.97;5093632;28;20506;-58
2021/08/24 09:54:41;;;;;;;11.07;5.05;;;;;;;19.50;69.62;102023.47;5100132;28;20035;-58
2021/08/24 09:57:09;;;;;;;7.97;4.72;;;;;;;19.51;69.31;102011.78;5110827;27;20041;-58
2021/08/24 10:00:00;;;;;;;9.77;4.90;;;;;;;19.51;69.36;102017.13;5134184;27;20050;-58
2021/08/24 10:02:28;;;;;;;9.88;3.70;;;;;;;19.53;69.01;102017.78;5128834;27;20054;-58
2021/08/24 10:04:54;;;;;;;7.90;4.25;;;;;;;19.53;70.21;102010.59;5133473;27;20080;-57
2021/08/24 10:07:32;;;;;;;5.32;3.47;;;;;;;19.53;70.00;102010.59;5133509;27;20042;-58
2021/08/24 10:09:58;;;;;;;5.15;3.35;;;;;;;19.54;70.20;102014.94;5127036;27;20027;-57
2021/08/24 10:12:34;;;;;;;8.05;3.80;;;;;;;19.56;69.81;102004.88;5129856;27;20028;-58
2021/08/24 10:15:36;;;;;;;8.15;4.03;;;;;;;19.58;69.97;102000.22;5125499;27;20039;-58
2021/08/24 10:18:14;;;;;;;6.32;3.17;;;;;;;19.61;69.85;102006.22;5120060;27;20035;-58
2021/08/24 10:20:52;;;;;;;5.00;3.28;;;;;;;19.62;69.94;102003.38;5121080;27;20236;-57
2021/08/24 10:23:26;;;;;;;8.27;3.40;;;;;;;19.63;69.89;101997.03;5116364;27;20118;-58
2021/08/24 10:26:00;;;;;;;6.28;2.92;;;;;;;19.64;69.82;101996.00;5115753;27;20389;-57
2021/08/24 10:28:31;;;;;;;3.67;2.90;;;;;;;19.67;69.19;102001.03;5119557;27;20066;-58
2021/08/24 10:31:30;;;;;;;2.80;2.58;;;;;;;19.70;69.67;102005.25;5129263;27;20110;-58
2021/08/24 10:34:10;;;;;;;5.18;3.13;;;;;;;19.71;69.41;102002.41;5128636;27;20035;-58
2021/08/24 10:36:39;;;;;;;3.22;2.70;;;;;;;19.73;69.40;102001.38;5129020;27;20046;-57
2021/08/24 10:39:23;;;;;;;4.15;2.60;;;;;;;19.74;69.46;102006.59;5126843;27;20027;-58
2021/08/24 10:42:04;;;;;;;4.80;3.00;;;;;;;19.74;69.48;102000.38;5124775;27;20095;-58
2021/08/24 10:44:43;;;;;;;5.15;3.30;;;;;;;19.77;69.63;102003.56;5129896;27;20137;-58
2021/08/24 10:47:42;;;;;;;6.57;2.90;;;;;;;19.79;69.65;102000.72;5125134;27;20020;-58
2021/08/24 10:50:48;;;;;;;15.18;6.10;;;;;;;19.80;69.90;101997.00;5093809;28;20031;-58
2021/08/24 10:53:38;;;;;;;12.77;5.22;;;;;;;19.82;69.87;101998.53;5111428;28;20042;-57
2021/08/24 10:56:25;;;;;;;15.15;5.55;;;;;;;19.85;70.24;102002.72;5111808;28;20039;-57
2021/08/24 10:59:25;;;;;;;11.35;5.25;;;;;;;19.88;69.98;102007.75;5114693;27;20051;-59
2021/08/24 11:02:03;;;;;;;15.48;4.00;;;;;;;19.90;70.06;102011.13;5113589;27;20444;-57
2021/08/24 11:04:44;;;;;;;8.82;4.05;;;;;;;19.93;70.13;102009.94;5132346;27;20043;-58
2021/08/24 11:07:15;;;;;;;8.68;3.55;;;;;;;19.93;69.99;102004.56;5132520;27;20031;-58
2021/08/24 11:09:54;;;;;;;14.57;3.65;;;;;;;19.94;69.94;102008.94;5132213;27;20764;-58
2021/08/24 11:12:45;;;;;;;6.95;2.97;;;;;;;19.92;69.81;102001.03;5131954;27;20059;-58
2021/08/24 11:15:33;;;;;;;8.68;3.05;;;;;;;19.93;69.33;102002.72;5121717;27;20481;-58
2021/08/24 11:18:43;;;;;;;4.70;2.80;;;;;;;19.96;69.27;102010.44;5111927;28;20032;-58
2021/08/24 11:21:40;;;;;;;9.93;2.67;;;;;;;20.01;68.88;102003.72;5074470;27;20070;-57
2021/08/24 11:24:23;;;;;;;5.70;2.17;;;;;;;20.05;68.68;101999.75;5132912;27;20237;-58
2021/08/24 11:27:22;;;;;;;4.43;2.55;;;;;;;20.10;68.25;102000.03;5114579;27;20031;-57
2021/08/24 11:29:53;;;;;;;6.45;2.95;;;;;;;20.11;68.00;102003.56;5132722;27;20031;-58
2021/08/24 11:32:43;;;;;;;4.20;2.20;;;;;;;20.14;67.87;102001.41;5132633;27;20482;-57
2021/08/24 11:35:21;;;;;;;7.60;2.00;;;;;;;20.14;67.88;102004.09;5132418;27;20039;-57
2021/08/24 11:37:58;;;;;;;4.55;2.00;;;;;;;20.16;67.72;102002.03;5132640;27;20046;-58
2021/08/24 11:40:30;;;;;;;8.52;2.17;;;;;;;20.22;67.73;101999.69;5132157;27;20039;-58
2021/08/24 11:42:59;;;;;;;3.42;2.03;;;;;;;20.24;67.16;101997.69;5128008;27;20117;-57
2021/08/24 11:45:37;;;;;;;2.88;1.60;;;;;;;20.27;67.42;101994.66;5131963;27;20034;-58